sensor_id;sensor_type;location;lat;lon;timestamp;P1;durP1;ratioP1;P2;durP2;ratioP2
11394;SDS011;5753;54.402;10.220;2022-07-04T00:01:17;7.13;;;5.10;;
11394;SDS011;5753;54.402;10.220;2022-07-04T00:03:44;6.40;;;4.63;;
11394;SDS011;5753;54.402;10.220;2022-07-04T00:06:10;4.90;;;4.40;;
11394;SDS011;5753;54.402;10.220;2022-07-04T00:08:36;7.57;;;3.20;;
11394;SDS011;5753;54.402;10.220;2022-07-04T00:11:02;8.73;;;5.65;;
11394;SDS011;5753;54.402;10.220;2022-07-04T00:13:28;7.63;;;4.43;;
11394;SDS011;5753;54.402;10.220;2022-07-04T00:15:54;6.28;;;4.60;;
11394;SDS011;5753;54.402;10.220;2022-07-04T00:18:21;4.65;;;3.83;;
11394;SDS011;5753;54.402;10.220;2022-07-04T00:20:47;8.55;;;6.57;;
11394;SDS011;5753;54.402;10.220;2022-07-04T00:23:13;11.50;;;4.82;;
11394;SDS011;5753;54.402;10.220;2022-07-04T00:25:39;5.53;;;5.03;;
11394;SDS011;5753;54.402;10.220;2022-07-04T00:28:05;6.68;;;4.88;;
11394;SDS011;5753;54.402;10.220;2022-07-04T00:30:31;11.40;;;5.68;;
11394;SDS011;5753;54.402;10.220;2022-07-04T00:32:57;6.15;;;5.60;;
11394;SDS011;5753;54.402;10.220;2022-07-04T00:35:23;9.07;;;5.05;;
11394;SDS011;5753;54.402;10.220;2022-07-04T00:37:50;7.75;;;5.55;;
11394;SDS011;5753;54.402;10.220;2022-07-04T00:40:16;6.15;;;5.07;;
11394;SDS011;5753;54.402;10.220;2022-07-04T00:42:42;12.85;;;5.57;;
11394;SDS011;5753;54.402;10.220;2022-07-04T00:45:08;11.35;;;6.60;;
11394;SDS011;5753;54.402;10.220;2022-07-04T00:47:35;8.48;;;6.10;;
11394;SDS011;5753;54.402;10.220;2022-07-04T00:50:01;7.30;;;5.90;;
11394;SDS011;5753;54.402;10.220;2022-07-04T00:52:27;6.95;;;5.70;;
11394;SDS011;5753;54.402;10.220;2022-07-04T00:54:54;10.20;;;6.05;;
11394;SDS011;5753;54.402;10.220;2022-07-04T00:57:20;11.55;;;7.97;;
11394;SDS011;5753;54.402;10.220;2022-07-04T00:59:46;7.43;;;6.70;;
11394;SDS011;5753;54.402;10.220;2022-07-04T01:02:13;17.45;;;5.72;;
11394;SDS011;5753;54.402;10.220;2022-07-04T01:04:39;10.75;;;6.63;;
11394;SDS011;5753;54.402;10.220;2022-07-04T01:07:05;12.68;;;6.93;;
11394;SDS011;5753;54.402;10.220;2022-07-04T01:09:31;10.43;;;6.53;;
11394;SDS011;5753;54.402;10.220;2022-07-04T01:11:57;7.30;;;6.18;;
11394;SDS011;5753;54.402;10.220;2022-07-04T01:14:23;7.47;;;6.72;;
11394;SDS011;5753;54.402;10.220;2022-07-04T01:16:49;7.88;;;6.20;;
11394;SDS011;5753;54.402;10.220;2022-07-04T01:19:16;8.48;;;6.90;;
11394;SDS011;5753;54.402;10.220;2022-07-04T01:21:42;8.23;;;7.07;;
11394;SDS011;5753;54.402;10.220;2022-07-04T01:24:10;7.82;;;5.38;;
11394;SDS011;5753;54.402;10.220;2022-07-04T01:26:37;10.60;;;6.53;;
11394;SDS011;5753;54.402;10.220;2022-07-04T01:29:03;9.65;;;7.32;;
11394;SDS011;5753;54.402;10.220;2022-07-04T01:31:30;12.50;;;7.40;;
11394;SDS011;5753;54.402;10.220;2022-07-04T01:33:56;9.13;;;5.78;;
11394;SDS011;5753;54.402;10.220;2022-07-04T01:36:22;7.97;;;6.43;;
11394;SDS011;5753;54.402;10.220;2022-07-04T01:38:48;16.45;;;9.02;;
11394;SDS011;5753;54.402;10.220;2022-07-04T01:41:14;9.13;;;7.28;;
11394;SDS011;5753;54.402;10.220;2022-07-04T01:43:40;14.52;;;9.18;;
11394;SDS011;5753;54.402;10.220;2022-07-04T01:46:06;12.85;;;6.22;;
11394;SDS011;5753;54.402;10.220;2022-07-04T01:48:33;10.68;;;7.22;;
11394;SDS011;5753;54.402;10.220;2022-07-04T01:50:59;11.02;;;7.63;;
11394;SDS011;5753;54.402;10.220;2022-07-04T01:53:25;9.65;;;6.97;;
11394;SDS011;5753;54.402;10.220;2022-07-04T01:55:51;8.07;;;6.43;;
11394;SDS011;5753;54.402;10.220;2022-07-04T01:58:17;10.57;;;8.35;;
11394;SDS011;5753;54.402;10.220;2022-07-04T02:00:43;13.57;;;7.60;;
11394;SDS011;5753;54.402;10.220;2022-07-04T02:03:28;9.68;;;7.32;;
11394;SDS011;5753;54.402;10.220;2022-07-04T02:05:54;11.18;;;6.90;;
11394;SDS011;5753;54.402;10.220;2022-07-04T02:08:20;15.50;;;7.95;;
11394;SDS011;5753;54.402;10.220;2022-07-04T02:10:46;12.18;;;6.40;;
11394;SDS011;5753;54.402;10.220;2022-07-04T02:13:13;7.30;;;6.47;;
11394;SDS011;5753;54.402;10.220;2022-07-04T02:15:41;13.75;;;7.53;;
11394;SDS011;5753;54.402;10.220;2022-07-04T02:18:08;10.25;;;6.72;;
11394;SDS011;5753;54.402;10.220;2022-07-04T02:20:36;11.15;;;7.47;;
11394;SDS011;5753;54.402;10.220;2022-07-04T02:23:03;8.43;;;6.10;;
11394;SDS011;5753;54.402;10.220;2022-07-04T02:25:29;9.25;;;6.93;;
11394;SDS011;5753;54.402;10.220;2022-07-04T02:27:56;9.75;;;7.10;;
11394;SDS011;5753;54.402;10.220;2022-07-04T02:30:23;7.47;;;6.43;;
11394;SDS011;5753;54.402;10.220;2022-07-04T02:32:50;7.50;;;5.45;;
11394;SDS011;5753;54.402;10.220;2022-07-04T02:35:16;18.98;;;8.13;;
11394;SDS011;5753;54.402;10.220;2022-07-04T02:37:43;9.05;;;6.30;;
11394;SDS011;5753;54.402;10.220;2022-07-04T02:40:09;7.05;;;6.38;;
11394;SDS011;5753;54.402;10.220;2022-07-04T02:42:35;5.75;;;4.65;;
11394;SDS011;5753;54.402;10.220;2022-07-04T02:45:02;9.75;;;5.25;;
11394;SDS011;5753;54.402;10.220;2022-07-04T02:47:29;13.10;;;6.43;;
11394;SDS011;5753;54.402;10.220;2022-07-04T02:49:55;7.38;;;5.60;;
11394;SDS011;5753;54.402;10.220;2022-07-04T02:52:21;6.15;;;5.18;;
11394;SDS011;5753;54.402;10.220;2022-07-04T02:54:48;9.20;;;5.55;;
11394;SDS011;5753;54.402;10.220;2022-07-04T02:57:14;8.57;;;6.35;;
11394;SDS011;5753;54.402;10.220;2022-07-04T02:59:40;12.75;;;5.80;;
11394;SDS011;5753;54.402;10.220;2022-07-04T03:02:07;8.52;;;5.45;;
11394;SDS011;5753;54.402;10.220;2022-07-04T03:04:33;8.82;;;6.47;;
11394;SDS011;5753;54.402;10.220;2022-07-04T03:06:59;7.15;;;5.53;;
11394;SDS011;5753;54.402;10.220;2022-07-04T03:09:26;8.73;;;6.00;;
11394;SDS011;5753;54.402;10.220;2022-07-04T03:11:52;7.80;;;6.68;;
11394;SDS011;5753;54.402;10.220;2022-07-04T03:14:18;7.05;;;5.53;;
11394;SDS011;5753;54.402;10.220;2022-07-04T03:16:45;12.10;;;6.63;;
11394;SDS011;5753;54.402;10.220;2022-07-04T03:19:11;8.00;;;5.32;;
11394;SDS011;5753;54.402;10.220;2022-07-04T03:21:37;6.93;;;6.30;;
11394;SDS011;5753;54.402;10.220;2022-07-04T03:24:04;7.22;;;5.50;;
11394;SDS011;5753;54.402;10.220;2022-07-04T03:26:31;8.93;;;5.53;;
11394;SDS011;5753;54.402;10.220;2022-07-04T03:28:58;10.65;;;5.25;;
11394;SDS011;5753;54.402;10.220;2022-07-04T03:31:25;6.75;;;4.68;;
11394;SDS011;5753;54.402;10.220;2022-07-04T03:33:53;9.63;;;4.35;;
11394;SDS011;5753;54.402;10.220;2022-07-04T03:36:19;6.38;;;4.60;;
11394;SDS011;5753;54.402;10.220;2022-07-04T03:38:46;6.93;;;4.35;;
11394;SDS011;5753;54.402;10.220;2022-07-04T03:41:13;6.78;;;5.90;;
11394;SDS011;5753;54.402;10.220;2022-07-04T03:43:39;7.78;;;4.65;;
11394;SDS011;5753;54.402;10.220;2022-07-04T03:46:05;3.92;;;3.47;;
11394;SDS011;5753;54.402;10.220;2022-07-04T03:48:31;6.88;;;3.95;;
11394;SDS011;5753;54.402;10.220;2022-07-04T03:50:58;4.65;;;4.25;;
11394;SDS011;5753;54.402;10.220;2022-07-04T03:53:24;8.80;;;4.78;;
11394;SDS011;5753;54.402;10.220;2022-07-04T03:55:50;5.80;;;5.25;;
11394;SDS011;5753;54.402;10.220;2022-07-04T03:58:17;10.88;;;5.95;;
11394;SDS011;5753;54.402;10.220;2022-07-04T04:00:43;6.03;;;3.90;;
11394;SDS011;5753;54.402;10.220;2022-07-04T04:03:09;5.18;;;3.85;;
11394;SDS011;5753;54.402;10.220;2022-07-04T04:05:54;3.55;;;3.35;;
11394;SDS011;5753;54.402;10.220;2022-07-04T04:08:21;10.60;;;4.35;;
11394;SDS011;5753;54.402;10.220;2022-07-04T04:10:47;4.30;;;2.97;;
11394;SDS011;5753;54.402;10.220;2022-07-04T04:13:14;5.88;;;3.72;;
11394;SDS011;5753;54.402;10.220;2022-07-04T04:15:41;6.15;;;3.47;;
11394;SDS011;5753;54.402;10.220;2022-07-04T04:18:07;6.43;;;2.83;;
11394;SDS011;5753;54.402;10.220;2022-07-04T04:20:33;3.00;;;2.70;;
11394;SDS011;5753;54.402;10.220;2022-07-04T04:22:59;6.50;;;3.40;;
11394;SDS011;5753;54.402;10.220;2022-07-04T04:25:26;13.55;;;2.90;;
11394;SDS011;5753;54.402;10.220;2022-07-04T04:27:52;9.30;;;2.67;;
11394;SDS011;5753;54.402;10.220;2022-07-04T04:30:18;3.17;;;2.88;;
11394;SDS011;5753;54.402;10.220;2022-07-04T04:32:44;5.57;;;2.55;;
11394;SDS011;5753;54.402;10.220;2022-07-04T04:35:10;4.35;;;2.42;;
11394;SDS011;5753;54.402;10.220;2022-07-04T04:37:37;3.22;;;2.97;;
11394;SDS011;5753;54.402;10.220;2022-07-04T04:40:03;7.22;;;2.50;;
11394;SDS011;5753;54.402;10.220;2022-07-04T04:42:29;3.50;;;2.50;;
11394;SDS011;5753;54.402;10.220;2022-07-04T04:44:55;4.03;;;1.95;;
11394;SDS011;5753;54.402;10.220;2022-07-04T04:47:22;6.70;;;1.90;;
11394;SDS011;5753;54.402;10.220;2022-07-04T04:49:48;2.42;;;2.22;;
11394;SDS011;5753;54.402;10.220;2022-07-04T04:52:14;3.13;;;2.22;;
11394;SDS011;5753;54.402;10.220;2022-07-04T04:54:40;3.03;;;2.67;;
11394;SDS011;5753;54.402;10.220;2022-07-04T04:57:07;5.93;;;3.65;;
11394;SDS011;5753;54.402;10.220;2022-07-04T04:59:33;4.88;;;2.88;;
11394;SDS011;5753;54.402;10.220;2022-07-04T05:01:59;3.00;;;2.40;;
11394;SDS011;5753;54.402;10.220;2022-07-04T05:04:26;4.60;;;3.13;;
11394;SDS011;5753;54.402;10.220;2022-07-04T05:06:52;6.47;;;3.88;;
11394;SDS011;5753;54.402;10.220;2022-07-04T05:09:19;12.82;;;3.75;;
11394;SDS011;5753;54.402;10.220;2022-07-04T05:11:46;7.32;;;2.65;;
11394;SDS011;5753;54.402;10.220;2022-07-04T05:14:12;8.20;;;3.75;;
11394;SDS011;5753;54.402;10.220;2022-07-04T05:16:38;5.57;;;3.55;;
11394;SDS011;5753;54.402;10.220;2022-07-04T05:19:05;10.32;;;3.20;;
11394;SDS011;5753;54.402;10.220;2022-07-04T05:21:31;4.80;;;1.85;;
11394;SDS011;5753;54.402;10.220;2022-07-04T05:23:57;5.68;;;3.25;;
11394;SDS011;5753;54.402;10.220;2022-07-04T05:26:23;6.47;;;2.78;;
11394;SDS011;5753;54.402;10.220;2022-07-04T05:28:50;2.30;;;1.67;;
11394;SDS011;5753;54.402;10.220;2022-07-04T05:31:16;3.33;;;1.95;;
11394;SDS011;5753;54.402;10.220;2022-07-04T05:33:42;7.05;;;2.20;;
11394;SDS011;5753;54.402;10.220;2022-07-04T05:36:08;3.38;;;1.88;;
11394;SDS011;5753;54.402;10.220;2022-07-04T05:38:35;6.07;;;2.63;;
11394;SDS011;5753;54.402;10.220;2022-07-04T05:41:01;1.75;;;1.60;;
11394;SDS011;5753;54.402;10.220;2022-07-04T05:43:27;2.97;;;2.50;;
11394;SDS011;5753;54.402;10.220;2022-07-04T05:45:54;5.93;;;2.83;;
11394;SDS011;5753;54.402;10.220;2022-07-04T05:48:20;11.38;;;2.65;;
11394;SDS011;5753;54.402;10.220;2022-07-04T05:50:46;3.65;;;3.05;;
11394;SDS011;5753;54.402;10.220;2022-07-04T05:53:12;4.57;;;1.90;;
11394;SDS011;5753;54.402;10.220;2022-07-04T05:55:38;9.70;;;2.58;;
11394;SDS011;5753;54.402;10.220;2022-07-04T05:58:04;6.53;;;2.38;;
11394;SDS011;5753;54.402;10.220;2022-07-04T06:00:31;2.58;;;1.35;;
11394;SDS011;5753;54.402;10.220;2022-07-04T06:02:57;1.85;;;1.63;;
11394;SDS011;5753;54.402;10.220;2022-07-04T06:05:23;3.85;;;1.60;;
11394;SDS011;5753;54.402;10.220;2022-07-04T06:07:49;3.08;;;1.83;;
11394;SDS011;5753;54.402;10.220;2022-07-04T06:10:15;2.50;;;1.73;;
11394;SDS011;5753;54.402;10.220;2022-07-04T06:12:42;17.30;;;3.15;;
11394;SDS011;5753;54.402;10.220;2022-07-04T06:15:08;1.80;;;1.38;;
11394;SDS011;5753;54.402;10.220;2022-07-04T06:17:35;4.25;;;1.77;;
11394;SDS011;5753;54.402;10.220;2022-07-04T06:20:02;3.53;;;1.58;;
11394;SDS011;5753;54.402;10.220;2022-07-04T06:22:38;3.10;;;2.22;;
11394;SDS011;5753;54.402;10.220;2022-07-04T06:25:05;4.75;;;1.65;;
11394;SDS011;5753;54.402;10.220;2022-07-04T06:27:31;5.88;;;1.25;;
11394;SDS011;5753;54.402;10.220;2022-07-04T06:29:57;2.00;;;1.30;;
11394;SDS011;5753;54.402;10.220;2022-07-04T06:32:25;3.38;;;1.20;;
11394;SDS011;5753;54.402;10.220;2022-07-04T06:34:51;4.88;;;1.40;;
11394;SDS011;5753;54.402;10.220;2022-07-04T06:37:36;2.75;;;1.73;;
11394;SDS011;5753;54.402;10.220;2022-07-04T06:40:02;5.00;;;1.73;;
11394;SDS011;5753;54.402;10.220;2022-07-04T06:42:29;4.82;;;2.72;;
11394;SDS011;5753;54.402;10.220;2022-07-04T06:44:55;1.60;;;0.85;;
11394;SDS011;5753;54.402;10.220;2022-07-04T06:47:21;1.73;;;1.27;;
11394;SDS011;5753;54.402;10.220;2022-07-04T06:49:47;3.40;;;1.38;;
11394;SDS011;5753;54.402;10.220;2022-07-04T06:52:13;1.52;;;1.42;;
11394;SDS011;5753;54.402;10.220;2022-07-04T06:54:39;1.17;;;1.08;;
11394;SDS011;5753;54.402;10.220;2022-07-04T06:57:05;10.68;;;1.48;;
11394;SDS011;5753;54.402;10.220;2022-07-04T06:59:31;2.55;;;1.35;;
11394;SDS011;5753;54.402;10.220;2022-07-04T07:01:57;2.08;;;1.00;;
11394;SDS011;5753;54.402;10.220;2022-07-04T07:04:23;4.07;;;1.83;;
11394;SDS011;5753;54.402;10.220;2022-07-04T07:06:50;7.43;;;1.70;;
11394;SDS011;5753;54.402;10.220;2022-07-04T07:09:16;6.70;;;1.33;;
11394;SDS011;5753;54.402;10.220;2022-07-04T07:11:42;1.52;;;1.13;;
11394;SDS011;5753;54.402;10.220;2022-07-04T07:14:08;4.75;;;1.30;;
11394;SDS011;5753;54.402;10.220;2022-07-04T07:16:34;1.23;;;1.13;;
11394;SDS011;5753;54.402;10.220;2022-07-04T07:19:00;3.40;;;1.02;;
11394;SDS011;5753;54.402;10.220;2022-07-04T07:21:26;3.53;;;1.63;;
11394;SDS011;5753;54.402;10.220;2022-07-04T07:23:52;2.33;;;1.80;;
11394;SDS011;5753;54.402;10.220;2022-07-04T07:26:19;1.40;;;1.27;;
11394;SDS011;5753;54.402;10.220;2022-07-04T07:28:45;2.63;;;1.58;;
11394;SDS011;5753;54.402;10.220;2022-07-04T07:31:11;6.35;;;2.40;;
11394;SDS011;5753;54.402;10.220;2022-07-04T07:33:37;1.65;;;1.00;;
11394;SDS011;5753;54.402;10.220;2022-07-04T07:36:04;2.90;;;1.15;;
11394;SDS011;5753;54.402;10.220;2022-07-04T07:38:30;3.47;;;1.23;;
11394;SDS011;5753;54.402;10.220;2022-07-04T07:40:56;2.08;;;1.88;;
11394;SDS011;5753;54.402;10.220;2022-07-04T07:43:22;2.25;;;1.20;;
11394;SDS011;5753;54.402;10.220;2022-07-04T07:45:49;1.00;;;0.90;;
11394;SDS011;5753;54.402;10.220;2022-07-04T07:48:15;5.30;;;1.13;;
11394;SDS011;5753;54.402;10.220;2022-07-04T07:50:41;1.80;;;0.95;;
11394;SDS011;5753;54.402;10.220;2022-07-04T07:53:07;2.75;;;1.35;;
11394;SDS011;5753;54.402;10.220;2022-07-04T07:55:34;3.00;;;2.40;;
11394;SDS011;5753;54.402;10.220;2022-07-04T07:58:00;2.10;;;2.00;;
11394;SDS011;5753;54.402;10.220;2022-07-04T08:00:26;3.88;;;2.25;;
11394;SDS011;5753;54.402;10.220;2022-07-04T08:02:52;3.53;;;1.25;;
11394;SDS011;5753;54.402;10.220;2022-07-04T08:05:38;2.70;;;1.88;;
11394;SDS011;5753;54.402;10.220;2022-07-04T08:08:04;1.65;;;1.23;;
11394;SDS011;5753;54.402;10.220;2022-07-04T08:10:32;5.70;;;1.38;;
11394;SDS011;5753;54.402;10.220;2022-07-04T08:12:58;3.58;;;1.20;;
11394;SDS011;5753;54.402;10.220;2022-07-04T08:15:24;1.42;;;1.33;;
11394;SDS011;5753;54.402;10.220;2022-07-04T08:17:51;1.20;;;0.98;;
11394;SDS011;5753;54.402;10.220;2022-07-04T08:20:18;4.43;;;1.45;;
11394;SDS011;5753;54.402;10.220;2022-07-04T08:22:44;2.65;;;1.67;;
11394;SDS011;5753;54.402;10.220;2022-07-04T08:25:10;1.92;;;1.50;;
11394;SDS011;5753;54.402;10.220;2022-07-04T08:27:36;4.10;;;1.67;;
11394;SDS011;5753;54.402;10.220;2022-07-04T08:30:03;2.13;;;1.35;;
11394;SDS011;5753;54.402;10.220;2022-07-04T08:32:30;2.40;;;2.20;;
11394;SDS011;5753;54.402;10.220;2022-07-04T08:34:57;1.98;;;1.25;;
11394;SDS011;5753;54.402;10.220;2022-07-04T08:37:23;1.50;;;1.38;;
11394;SDS011;5753;54.402;10.220;2022-07-04T08:39:49;4.43;;;1.80;;
11394;SDS011;5753;54.402;10.220;2022-07-04T08:42:17;2.17;;;1.25;;
11394;SDS011;5753;54.402;10.220;2022-07-04T08:44:46;0.90;;;0.90;;
11394;SDS011;5753;54.402;10.220;2022-07-04T08:47:23;1.25;;;0.90;;
11394;SDS011;5753;54.402;10.220;2022-07-04T08:49:53;1.58;;;1.17;;
11394;SDS011;5753;54.402;10.220;2022-07-04T08:52:37;1.60;;;0.98;;
11394;SDS011;5753;54.402;10.220;2022-07-04T08:55:06;1.20;;;1.10;;
11394;SDS011;5753;54.402;10.220;2022-07-04T08:57:52;1.20;;;1.02;;
11394;SDS011;5753;54.402;10.220;2022-07-04T09:00:38;2.65;;;0.95;;
11394;SDS011;5753;54.402;10.220;2022-07-04T09:03:05;0.75;;;0.75;;
11394;SDS011;5753;54.402;10.220;2022-07-04T09:05:32;0.80;;;0.75;;
11394;SDS011;5753;54.402;10.220;2022-07-04T09:07:59;3.45;;;1.38;;
11394;SDS011;5753;54.402;10.220;2022-07-04T09:10:26;1.85;;;1.13;;
11394;SDS011;5753;54.402;10.220;2022-07-04T09:12:52;1.38;;;1.17;;
11394;SDS011;5753;54.402;10.220;2022-07-04T09:15:19;3.58;;;1.00;;
11394;SDS011;5753;54.402;10.220;2022-07-04T09:17:45;3.70;;;1.13;;
11394;SDS011;5753;54.402;10.220;2022-07-04T09:20:15;2.17;;;0.73;;
11394;SDS011;5753;54.402;10.220;2022-07-04T09:22:44;0.65;;;0.60;;
11394;SDS011;5753;54.402;10.220;2022-07-04T09:25:12;2.15;;;0.82;;
11394;SDS011;5753;54.402;10.220;2022-07-04T09:27:40;1.10;;;0.98;;
11394;SDS011;5753;54.402;10.220;2022-07-04T09:30:12;0.85;;;0.77;;
11394;SDS011;5753;54.402;10.220;2022-07-04T09:33:13;2.92;;;1.27;;
11394;SDS011;5753;54.402;10.220;2022-07-04T09:35:32;0.70;;;0.70;;
11394;SDS011;5753;54.402;10.220;2022-07-04T09:38:00;3.50;;;1.42;;
11394;SDS011;5753;54.402;10.220;2022-07-04T09:40:33;3.95;;;1.40;;
11394;SDS011;5753;54.402;10.220;2022-07-04T09:43:22;1.67;;;1.58;;
11394;SDS011;5753;54.402;10.220;2022-07-04T09:45:55;1.52;;;1.40;;
11394;SDS011;5753;54.402;10.220;2022-07-04T09:48:26;2.38;;;0.90;;
11394;SDS011;5753;54.402;10.220;2022-07-04T09:51:12;0.80;;;0.80;;
11394;SDS011;5753;54.402;10.220;2022-07-04T09:53:39;1.30;;;1.08;;
11394;SDS011;5753;54.402;10.220;2022-07-04T09:56:05;3.40;;;0.95;;
11394;SDS011;5753;54.402;10.220;2022-07-04T09:58:31;1.90;;;1.80;;
11394;SDS011;5753;54.402;10.220;2022-07-04T10:00:59;1.92;;;1.38;;
11394;SDS011;5753;54.402;10.220;2022-07-04T10:03:26;1.35;;;1.25;;
11394;SDS011;5753;54.402;10.220;2022-07-04T10:08:29;1.20;;;0.85;;
11394;SDS011;5753;54.402;10.220;2022-07-04T10:11:00;2.28;;;2.17;;
11394;SDS011;5753;54.402;10.220;2022-07-04T10:13:28;3.92;;;0.80;;
11394;SDS011;5753;54.402;10.220;2022-07-04T10:15:54;1.95;;;1.17;;
11394;SDS011;5753;54.402;10.220;2022-07-04T10:18:21;1.70;;;1.30;;
11394;SDS011;5753;54.402;10.220;2022-07-04T10:20:49;2.42;;;1.25;;
11394;SDS011;5753;54.402;10.220;2022-07-04T10:23:21;2.05;;;1.17;;
11394;SDS011;5753;54.402;10.220;2022-07-04T10:25:49;0.95;;;0.80;;
11394;SDS011;5753;54.402;10.220;2022-07-04T10:28:16;1.85;;;1.10;;
11394;SDS011;5753;54.402;10.220;2022-07-04T10:30:45;3.00;;;1.38;;
11394;SDS011;5753;54.402;10.220;2022-07-04T10:33:14;1.40;;;1.08;;
11394;SDS011;5753;54.402;10.220;2022-07-04T10:38:23;1.05;;;0.90;;
11394;SDS011;5753;54.402;10.220;2022-07-04T10:40:55;1.98;;;0.82;;
11394;SDS011;5753;54.402;10.220;2022-07-04T10:48:49;3.67;;;1.27;;
11394;SDS011;5753;54.402;10.220;2022-07-04T10:51:39;3.15;;;1.90;;
11394;SDS011;5753;54.402;10.220;2022-07-04T10:54:10;2.22;;;0.80;;
11394;SDS011;5753;54.402;10.220;2022-07-04T10:56:57;2.67;;;0.93;;
11394;SDS011;5753;54.402;10.220;2022-07-04T10:59:40;1.08;;;1.00;;
11394;SDS011;5753;54.402;10.220;2022-07-04T11:07:14;1.35;;;0.70;;
11394;SDS011;5753;54.402;10.220;2022-07-04T11:09:43;4.00;;;0.88;;
11394;SDS011;5753;54.402;10.220;2022-07-04T11:12:10;1.08;;;0.63;;
11394;SDS011;5753;54.402;10.220;2022-07-04T11:14:42;1.85;;;0.75;;
11394;SDS011;5753;54.402;10.220;2022-07-04T11:19:46;3.40;;;1.13;;
11394;SDS011;5753;54.402;10.220;2022-07-04T11:22:20;7.15;;;1.50;;
11394;SDS011;5753;54.402;10.220;2022-07-04T11:24:48;2.80;;;0.93;;
11394;SDS011;5753;54.402;10.220;2022-07-04T11:27:14;0.98;;;0.70;;
11394;SDS011;5753;54.402;10.220;2022-07-04T11:29:50;1.40;;;1.30;;
11394;SDS011;5753;54.402;10.220;2022-07-04T11:32:18;1.23;;;1.13;;
11394;SDS011;5753;54.402;10.220;2022-07-04T11:34:45;1.10;;;1.00;;
11394;SDS011;5753;54.402;10.220;2022-07-04T11:37:12;1.35;;;0.77;;
11394;SDS011;5753;54.402;10.220;2022-07-04T11:39:39;1.45;;;1.35;;
11394;SDS011;5753;54.402;10.220;2022-07-04T11:42:05;1.40;;;1.23;;
11394;SDS011;5753;54.402;10.220;2022-07-04T11:44:50;4.75;;;0.98;;
11394;SDS011;5753;54.402;10.220;2022-07-04T11:47:32;0.90;;;0.90;;
11394;SDS011;5753;54.402;10.220;2022-07-04T11:50:00;0.95;;;0.90;;
11394;SDS011;5753;54.402;10.220;2022-07-04T11:52:28;1.85;;;1.10;;
11394;SDS011;5753;54.402;10.220;2022-07-04T11:54:56;0.82;;;0.82;;
11394;SDS011;5753;54.402;10.220;2022-07-04T11:57:23;2.35;;;1.15;;
11394;SDS011;5753;54.402;10.220;2022-07-04T11:59:55;8.95;;;1.45;;
11394;SDS011;5753;54.402;10.220;2022-07-04T12:02:24;1.58;;;0.60;;
11394;SDS011;5753;54.402;10.220;2022-07-04T12:04:51;1.02;;;1.00;;
11394;SDS011;5753;54.402;10.220;2022-07-04T12:07:19;1.10;;;1.00;;
11394;SDS011;5753;54.402;10.220;2022-07-04T12:09:48;1.98;;;1.02;;
11394;SDS011;5753;54.402;10.220;2022-07-04T12:12:15;2.45;;;0.65;;
11394;SDS011;5753;54.402;10.220;2022-07-04T12:17:32;2.10;;;1.98;;
11394;SDS011;5753;54.402;10.220;2022-07-04T12:20:10;0.85;;;0.85;;
11394;SDS011;5753;54.402;10.220;2022-07-04T12:22:52;2.03;;;1.10;;
11394;SDS011;5753;54.402;10.220;2022-07-04T12:28:01;1.80;;;1.42;;
11394;SDS011;5753;54.402;10.220;2022-07-04T12:30:29;1.25;;;1.10;;
11394;SDS011;5753;54.402;10.220;2022-07-04T12:33:04;3.10;;;1.52;;
11394;SDS011;5753;54.402;10.220;2022-07-04T12:38:03;1.08;;;0.98;;
11394;SDS011;5753;54.402;10.220;2022-07-04T12:40:32;1.75;;;0.93;;
11394;SDS011;5753;54.402;10.220;2022-07-04T12:42:59;2.10;;;1.90;;
11394;SDS011;5753;54.402;10.220;2022-07-04T12:45:26;0.80;;;0.80;;
11394;SDS011;5753;54.402;10.220;2022-07-04T12:48:13;4.43;;;1.83;;
11394;SDS011;5753;54.402;10.220;2022-07-04T12:50:40;0.85;;;0.85;;
11394;SDS011;5753;54.402;10.220;2022-07-04T12:53:07;2.58;;;1.45;;
11394;SDS011;5753;54.402;10.220;2022-07-04T12:55:33;3.22;;;1.20;;
11394;SDS011;5753;54.402;10.220;2022-07-04T12:58:01;2.60;;;1.20;;
11394;SDS011;5753;54.402;10.220;2022-07-04T13:00:27;1.02;;;0.95;;
11394;SDS011;5753;54.402;10.220;2022-07-04T13:02:54;1.90;;;1.42;;
11394;SDS011;5753;54.402;10.220;2022-07-04T13:05:20;0.70;;;0.70;;
11394;SDS011;5753;54.402;10.220;2022-07-04T13:07:46;3.95;;;1.65;;
11394;SDS011;5753;54.402;10.220;2022-07-04T13:10:12;1.95;;;0.95;;
11394;SDS011;5753;54.402;10.220;2022-07-04T13:12:38;2.33;;;1.48;;
11394;SDS011;5753;54.402;10.220;2022-07-04T13:15:05;1.25;;;1.00;;
11394;SDS011;5753;54.402;10.220;2022-07-04T13:17:32;4.82;;;1.00;;
11394;SDS011;5753;54.402;10.220;2022-07-04T13:19:58;1.67;;;1.58;;
11394;SDS011;5753;54.402;10.220;2022-07-04T13:22:24;1.15;;;0.93;;
11394;SDS011;5753;54.402;10.220;2022-07-04T13:24:50;4.72;;;1.65;;
11394;SDS011;5753;54.402;10.220;2022-07-04T13:27:17;2.90;;;1.30;;
11394;SDS011;5753;54.402;10.220;2022-07-04T13:29:43;1.15;;;0.95;;
11394;SDS011;5753;54.402;10.220;2022-07-04T13:32:10;2.40;;;1.00;;
11394;SDS011;5753;54.402;10.220;2022-07-04T13:34:36;6.18;;;2.13;;
11394;SDS011;5753;54.402;10.220;2022-07-04T13:37:03;1.83;;;1.13;;
11394;SDS011;5753;54.402;10.220;2022-07-04T13:39:29;3.80;;;1.45;;
11394;SDS011;5753;54.402;10.220;2022-07-04T13:41:56;1.50;;;1.17;;
11394;SDS011;5753;54.402;10.220;2022-07-04T13:44:22;2.78;;;1.10;;
11394;SDS011;5753;54.402;10.220;2022-07-04T13:46:49;1.13;;;0.88;;
11394;SDS011;5753;54.402;10.220;2022-07-04T13:49:15;2.08;;;1.00;;
11394;SDS011;5753;54.402;10.220;2022-07-04T13:51:41;1.17;;;0.90;;
11394;SDS011;5753;54.402;10.220;2022-07-04T13:54:07;5.50;;;0.88;;
11394;SDS011;5753;54.402;10.220;2022-07-04T13:56:34;1.15;;;1.05;;
11394;SDS011;5753;54.402;10.220;2022-07-04T13:59:00;2.22;;;0.93;;
11394;SDS011;5753;54.402;10.220;2022-07-04T14:01:27;1.33;;;0.70;;
11394;SDS011;5753;54.402;10.220;2022-07-04T14:03:53;1.05;;;0.88;;
11394;SDS011;5753;54.402;10.220;2022-07-04T14:06:20;1.38;;;0.90;;
11394;SDS011;5753;54.402;10.220;2022-07-04T14:08:46;1.75;;;1.20;;
11394;SDS011;5753;54.402;10.220;2022-07-04T14:11:12;1.83;;;0.93;;
11394;SDS011;5753;54.402;10.220;2022-07-04T14:13:39;1.92;;;1.55;;
11394;SDS011;5753;54.402;10.220;2022-07-04T14:16:06;4.15;;;1.00;;
11394;SDS011;5753;54.402;10.220;2022-07-04T14:18:32;2.03;;;1.10;;
11394;SDS011;5753;54.402;10.220;2022-07-04T14:20:59;1.58;;;0.80;;
11394;SDS011;5753;54.402;10.220;2022-07-04T14:23:25;1.73;;;1.02;;
11394;SDS011;5753;54.402;10.220;2022-07-04T14:26:09;6.20;;;1.10;;
11394;SDS011;5753;54.402;10.220;2022-07-04T14:28:38;1.80;;;1.00;;
11394;SDS011;5753;54.402;10.220;2022-07-04T14:31:04;1.25;;;0.73;;
11394;SDS011;5753;54.402;10.220;2022-07-04T14:33:31;2.45;;;2.22;;
11394;SDS011;5753;54.402;10.220;2022-07-04T14:35:58;0.70;;;0.60;;
11394;SDS011;5753;54.402;10.220;2022-07-04T14:38:25;2.78;;;0.77;;
11394;SDS011;5753;54.402;10.220;2022-07-04T14:40:51;1.73;;;1.05;;
11394;SDS011;5753;54.402;10.220;2022-07-04T14:43:17;0.85;;;0.70;;
11394;SDS011;5753;54.402;10.220;2022-07-04T14:45:44;1.80;;;0.57;;
11394;SDS011;5753;54.402;10.220;2022-07-04T14:48:12;1.42;;;1.33;;
11394;SDS011;5753;54.402;10.220;2022-07-04T14:50:39;1.33;;;1.30;;
11394;SDS011;5753;54.402;10.220;2022-07-04T14:53:05;1.65;;;0.65;;
11394;SDS011;5753;54.402;10.220;2022-07-04T14:55:31;1.15;;;1.05;;
11394;SDS011;5753;54.402;10.220;2022-07-04T14:57:57;1.50;;;1.05;;
11394;SDS011;5753;54.402;10.220;2022-07-04T15:00:23;3.50;;;1.08;;
11394;SDS011;5753;54.402;10.220;2022-07-04T15:02:50;1.13;;;0.82;;
11394;SDS011;5753;54.402;10.220;2022-07-04T15:05:16;0.98;;;0.85;;
11394;SDS011;5753;54.402;10.220;2022-07-04T15:07:43;3.50;;;1.00;;
11394;SDS011;5753;54.402;10.220;2022-07-04T15:10:09;2.53;;;0.93;;
11394;SDS011;5753;54.402;10.220;2022-07-04T15:12:35;2.80;;;0.70;;
11394;SDS011;5753;54.402;10.220;2022-07-04T15:15:01;1.00;;;1.00;;